Terminal Aerodrome Forecast
Issued by NWS Twin Cities, MN

Home | Current Version | Previous Version | Graphics & Text | Print | Product List | Glossary On
Versions: 1 2 3 4 5 6 7 8 9 10 11 12 13 14 15 16 17 18 19 20 21 22 23 24 25 26
000
FTUS43 KMPX 161400 AAA
TAFMSP
TAF AMD
KMSP 161441Z 1615/1718 11015G25KT 5SM -SN BR BKN035
      TEMPO 1615/1618 2SM -SN BR BKN025
     FM161800 08013G22KT 4SM -RASN BR OVC020
     FM162000 06014G22KT 5SM -RA BR OVC015
     FM170000 01015G23KT 2SM -RASN OVC008
     FM170200 34014G20KT 3SM -SN OVC010
     FM170800 34012G20KT P6SM OVC015
     FM171200 32011KT P6SM SCT025=

USA.gov is the U.S. government's official web portal to all federal, state and local government web resources and services.